sensor_id;sensor_type;location;lat;lon;timestamp;temperature;humidity
2913;DHT22;1466;48.778;9.166;2022-11-20T00:02:24;8.50;99.90
2913;DHT22;1466;48.778;9.166;2022-11-20T00:04:50;8.40;99.90
2913;DHT22;1466;48.778;9.166;2022-11-20T00:07:15;8.40;99.90
2913;DHT22;1466;48.778;9.166;2022-11-20T00:09:41;8.50;99.90
2913;DHT22;1466;48.778;9.166;2022-11-20T00:12:06;8.50;99.90
2913;DHT22;1466;48.778;9.166;2022-11-20T00:14:32;8.60;99.90
2913;DHT22;1466;48.778;9.166;2022-11-20T00:16:58;8.70;99.90
2913;DHT22;1466;48.778;9.166;2022-11-20T00:19:23;8.80;99.90
2913;DHT22;1466;48.778;9.166;2022-11-20T00:21:49;8.80;99.90
2913;DHT22;1466;48.778;9.166;2022-11-20T00:24:16;8.90;99.90
2913;DHT22;1466;48.778;9.166;2022-11-20T00:26:42;8.90;99.90
2913;DHT22;1466;48.778;9.166;2022-11-20T00:29:09;9.00;99.90
2913;DHT22;1466;48.778;9.166;2022-11-20T00:31:36;8.90;99.90
2913;DHT22;1466;48.778;9.166;2022-11-20T00:34:01;8.90;99.90
2913;DHT22;1466;48.778;9.166;2022-11-20T00:36:28;9.00;99.90
2913;DHT22;1466;48.778;9.166;2022-11-20T00:38:56;8.90;99.90
2913;DHT22;1466;48.778;9.166;2022-11-20T00:41:22;9.00;99.90
2913;DHT22;1466;48.778;9.166;2022-11-20T00:43:48;9.00;99.90
2913;DHT22;1466;48.778;9.166;2022-11-20T00:46:19;8.90;99.90
2913;DHT22;1466;48.778;9.166;2022-11-20T00:48:45;9.00;99.90
2913;DHT22;1466;48.778;9.166;2022-11-20T00:51:13;8.90;99.90
2913;DHT22;1466;48.778;9.166;2022-11-20T00:53:38;8.90;99.90
2913;DHT22;1466;48.778;9.166;2022-11-20T00:56:07;8.90;99.90
2913;DHT22;1466;48.778;9.166;2022-11-20T00:58:34;8.90;99.90
2913;DHT22;1466;48.778;9.166;2022-11-20T01:03:34;8.90;99.90
2913;DHT22;1466;48.778;9.166;2022-11-20T01:06:04;8.90;99.90
2913;DHT22;1466;48.778;9.166;2022-11-20T01:08:32;8.90;99.90
2913;DHT22;1466;48.778;9.166;2022-11-20T01:11:07;9.00;99.90
2913;DHT22;1466;48.778;9.166;2022-11-20T01:13:33;9.00;99.90
2913;DHT22;1466;48.778;9.166;2022-11-20T01:18:40;9.10;99.90
2913;DHT22;1466;48.778;9.166;2022-11-20T01:21:09;9.00;99.90
2913;DHT22;1466;48.778;9.166;2022-11-20T01:23:37;9.00;99.90
2913;DHT22;1466;48.778;9.166;2022-11-20T01:26:05;9.00;99.90
2913;DHT22;1466;48.778;9.166;2022-11-20T01:28:31;9.00;99.90
2913;DHT22;1466;48.778;9.166;2022-11-20T01:30:57;9.10;99.90
2913;DHT22;1466;48.778;9.166;2022-11-20T01:33:23;9.00;99.90
2913;DHT22;1466;48.778;9.166;2022-11-20T01:35:49;9.00;99.90
2913;DHT22;1466;48.778;9.166;2022-11-20T01:38:16;9.00;99.90
2913;DHT22;1466;48.778;9.166;2022-11-20T01:40:42;9.00;99.90
2913;DHT22;1466;48.778;9.166;2022-11-20T01:43:16;9.00;99.90
2913;DHT22;1466;48.778;9.166;2022-11-20T01:46:05;9.00;99.90
2913;DHT22;1466;48.778;9.166;2022-11-20T01:51:42;8.90;99.90
2913;DHT22;1466;48.778;9.166;2022-11-20T01:54:13;8.80;99.90
2913;DHT22;1466;48.778;9.166;2022-11-20T01:56:42;8.80;99.90
2913;DHT22;1466;48.778;9.166;2022-11-20T01:59:10;8.80;99.90
2913;DHT22;1466;48.778;9.166;2022-11-20T02:01:37;8.80;99.90
2913;DHT22;1466;48.778;9.166;2022-11-20T02:04:05;8.80;99.90
2913;DHT22;1466;48.778;9.166;2022-11-20T02:06:45;8.70;99.90
2913;DHT22;1466;48.778;9.166;2022-11-20T02:09:14;8.80;99.90
2913;DHT22;1466;48.778;9.166;2022-11-20T02:11:40;8.80;99.90
2913;DHT22;1466;48.778;9.166;2022-11-20T02:14:05;8.70;99.90
2913;DHT22;1466;48.778;9.166;2022-11-20T02:16:35;8.80;99.90
2913;DHT22;1466;48.778;9.166;2022-11-20T02:19:04;8.80;99.90
2913;DHT22;1466;48.778;9.166;2022-11-20T02:21:42;8.80;99.90
2913;DHT22;1466;48.778;9.166;2022-11-20T02:24:19;8.80;99.90
2913;DHT22;1466;48.778;9.166;2022-11-20T02:27:06;8.80;99.90
2913;DHT22;1466;48.778;9.166;2022-11-20T02:32:20;8.90;99.90
2913;DHT22;1466;48.778;9.166;2022-11-20T02:34:46;8.90;99.90
2913;DHT22;1466;48.778;9.166;2022-11-20T02:37:12;8.90;99.90
2913;DHT22;1466;48.778;9.166;2022-11-20T02:39:40;8.90;99.90
2913;DHT22;1466;48.778;9.166;2022-11-20T02:42:05;8.80;99.90
2913;DHT22;1466;48.778;9.166;2022-11-20T02:44:31;8.80;99.90
2913;DHT22;1466;48.778;9.166;2022-11-20T02:46:57;8.80;99.90
2913;DHT22;1466;48.778;9.166;2022-11-20T02:49:24;8.80;99.90
2913;DHT22;1466;48.778;9.166;2022-11-20T02:51:50;8.80;99.90
2913;DHT22;1466;48.778;9.166;2022-11-20T02:54:15;8.80;99.90
2913;DHT22;1466;48.778;9.166;2022-11-20T02:56:41;8.80;99.90
2913;DHT22;1466;48.778;9.166;2022-11-20T02:59:07;8.70;99.90
2913;DHT22;1466;48.778;9.166;2022-11-20T03:01:32;8.70;99.90
2913;DHT22;1466;48.778;9.166;2022-11-20T03:03:58;8.60;99.90
2913;DHT22;1466;48.778;9.166;2022-11-20T03:06:24;8.60;99.90
2913;DHT22;1466;48.778;9.166;2022-11-20T03:08:49;8.60;99.90
2913;DHT22;1466;48.778;9.166;2022-11-20T03:11:15;8.60;99.90
2913;DHT22;1466;48.778;9.166;2022-11-20T03:13:42;8.50;99.90
2913;DHT22;1466;48.778;9.166;2022-11-20T03:16:16;8.50;99.90
2913;DHT22;1466;48.778;9.166;2022-11-20T03:18:42;8.60;99.90
2913;DHT22;1466;48.778;9.166;2022-11-20T03:21:09;8.60;99.90
2913;DHT22;1466;48.778;9.166;2022-11-20T03:23:35;8.60;99.90
2913;DHT22;1466;48.778;9.166;2022-11-20T03:26:22;8.60;99.90
2913;DHT22;1466;48.778;9.166;2022-11-20T03:28:56;8.60;99.90
2913;DHT22;1466;48.778;9.166;2022-11-20T03:31:30;8.60;99.90
2913;DHT22;1466;48.778;9.166;2022-11-20T03:33:57;8.60;99.90
2913;DHT22;1466;48.778;9.166;2022-11-20T03:36:23;8.50;99.90
2913;DHT22;1466;48.778;9.166;2022-11-20T03:38:49;8.50;99.90
2913;DHT22;1466;48.778;9.166;2022-11-20T03:41:19;8.40;99.90
2913;DHT22;1466;48.778;9.166;2022-11-20T03:46:14;8.50;99.90
2913;DHT22;1466;48.778;9.166;2022-11-20T03:48:40;8.50;99.90
2913;DHT22;1466;48.778;9.166;2022-11-20T03:51:14;8.50;99.90
2913;DHT22;1466;48.778;9.166;2022-11-20T03:53:41;8.50;99.90
2913;DHT22;1466;48.778;9.166;2022-11-20T03:56:08;8.60;99.90
2913;DHT22;1466;48.778;9.166;2022-11-20T03:58:37;8.60;99.90
2913;DHT22;1466;48.778;9.166;2022-11-20T04:01:06;8.50;99.90
2913;DHT22;1466;48.778;9.166;2022-11-20T04:03:32;8.50;99.90
2913;DHT22;1466;48.778;9.166;2022-11-20T04:06:05;8.50;99.90
2913;DHT22;1466;48.778;9.166;2022-11-20T04:08:31;8.50;99.90
2913;DHT22;1466;48.778;9.166;2022-11-20T04:11:17;8.40;99.90
2913;DHT22;1466;48.778;9.166;2022-11-20T04:13:46;8.30;99.90
2913;DHT22;1466;48.778;9.166;2022-11-20T04:16:12;8.20;99.90
2913;DHT22;1466;48.778;9.166;2022-11-20T04:18:38;8.20;99.90
2913;DHT22;1466;48.778;9.166;2022-11-20T04:21:05;8.20;99.90
2913;DHT22;1466;48.778;9.166;2022-11-20T04:23:31;8.10;99.90
2913;DHT22;1466;48.778;9.166;2022-11-20T04:26:05;8.10;99.90
2913;DHT22;1466;48.778;9.166;2022-11-20T04:28:31;8.10;99.90
2913;DHT22;1466;48.778;9.166;2022-11-20T04:31:05;8.20;99.90
2913;DHT22;1466;48.778;9.166;2022-11-20T04:33:31;8.10;99.90
2913;DHT22;1466;48.778;9.166;2022-11-20T04:36:03;8.20;99.90
2913;DHT22;1466;48.778;9.166;2022-11-20T04:38:29;8.10;99.90
2913;DHT22;1466;48.778;9.166;2022-11-20T04:40:59;8.10;99.90
2913;DHT22;1466;48.778;9.166;2022-11-20T04:43:25;8.10;99.90
2913;DHT22;1466;48.778;9.166;2022-11-20T04:45:54;8.10;99.90
2913;DHT22;1466;48.778;9.166;2022-11-20T04:48:20;8.10;99.90
2913;DHT22;1466;48.778;9.166;2022-11-20T04:50:46;8.20;99.90
2913;DHT22;1466;48.778;9.166;2022-11-20T04:53:11;8.20;99.90
2913;DHT22;1466;48.778;9.166;2022-11-20T04:55:37;8.30;99.90
2913;DHT22;1466;48.778;9.166;2022-11-20T04:58:02;8.30;99.90
2913;DHT22;1466;48.778;9.166;2022-11-20T05:00:28;8.30;99.90
2913;DHT22;1466;48.778;9.166;2022-11-20T05:02:53;8.30;99.90
2913;DHT22;1466;48.778;9.166;2022-11-20T05:05:19;8.20;99.90
2913;DHT22;1466;48.778;9.166;2022-11-20T05:07:44;8.20;99.90
2913;DHT22;1466;48.778;9.166;2022-11-20T05:10:10;8.20;99.90
2913;DHT22;1466;48.778;9.166;2022-11-20T05:12:36;8.20;99.90
2913;DHT22;1466;48.778;9.166;2022-11-20T05:15:01;8.20;99.90
2913;DHT22;1466;48.778;9.166;2022-11-20T05:17:27;8.20;99.90
2913;DHT22;1466;48.778;9.166;2022-11-20T05:19:52;8.30;99.90
2913;DHT22;1466;48.778;9.166;2022-11-20T05:22:18;8.30;99.90
2913;DHT22;1466;48.778;9.166;2022-11-20T05:24:43;8.40;99.90
2913;DHT22;1466;48.778;9.166;2022-11-20T05:27:09;8.30;99.90
2913;DHT22;1466;48.778;9.166;2022-11-20T05:29:34;8.40;99.90
2913;DHT22;1466;48.778;9.166;2022-11-20T05:32:00;8.40;99.90
2913;DHT22;1466;48.778;9.166;2022-11-20T05:34:25;8.40;99.90
2913;DHT22;1466;48.778;9.166;2022-11-20T05:36:51;8.40;99.90
2913;DHT22;1466;48.778;9.166;2022-11-20T05:39:17;8.50;99.90
2913;DHT22;1466;48.778;9.166;2022-11-20T05:41:42;8.50;99.90
2913;DHT22;1466;48.778;9.166;2022-11-20T05:44:10;8.60;99.90
2913;DHT22;1466;48.778;9.166;2022-11-20T05:46:36;8.60;99.90
2913;DHT22;1466;48.778;9.166;2022-11-20T05:49:02;8.60;99.90
2913;DHT22;1466;48.778;9.166;2022-11-20T05:51:28;8.50;99.90
2913;DHT22;1466;48.778;9.166;2022-11-20T05:53:55;8.50;99.90
2913;DHT22;1466;48.778;9.166;2022-11-20T05:56:22;8.50;99.90
2913;DHT22;1466;48.778;9.166;2022-11-20T05:58:48;8.50;99.90
2913;DHT22;1466;48.778;9.166;2022-11-20T06:01:16;8.50;99.90
2913;DHT22;1466;48.778;9.166;2022-11-20T06:03:42;8.50;99.90
2913;DHT22;1466;48.778;9.166;2022-11-20T06:06:11;8.60;99.90
2913;DHT22;1466;48.778;9.166;2022-11-20T06:08:36;8.60;99.90
2913;DHT22;1466;48.778;9.166;2022-11-20T06:11:08;8.60;99.90
2913;DHT22;1466;48.778;9.166;2022-11-20T06:13:34;8.70;99.90
2913;DHT22;1466;48.778;9.166;2022-11-20T06:16:00;8.70;99.90
2913;DHT22;1466;48.778;9.166;2022-11-20T06:18:27;8.80;99.90
2913;DHT22;1466;48.778;9.166;2022-11-20T06:21:21;8.80;99.90
2913;DHT22;1466;48.778;9.166;2022-11-20T06:23:46;8.80;99.90
2913;DHT22;1466;48.778;9.166;2022-11-20T06:26:14;8.90;99.90
2913;DHT22;1466;48.778;9.166;2022-11-20T06:28:40;8.90;99.90
2913;DHT22;1466;48.778;9.166;2022-11-20T06:31:06;8.80;99.90
2913;DHT22;1466;48.778;9.166;2022-11-20T06:33:33;8.80;99.90
2913;DHT22;1466;48.778;9.166;2022-11-20T06:35:59;8.80;99.90
2913;DHT22;1466;48.778;9.166;2022-11-20T06:38:26;8.80;99.90
2913;DHT22;1466;48.778;9.166;2022-11-20T06:40:52;8.80;99.90
2913;DHT22;1466;48.778;9.166;2022-11-20T06:43:18;8.80;99.90
2913;DHT22;1466;48.778;9.166;2022-11-20T06:45:43;8.70;99.90
2913;DHT22;1466;48.778;9.166;2022-11-20T06:48:09;8.80;99.90
2913;DHT22;1466;48.778;9.166;2022-11-20T06:50:36;8.80;99.90
2913;DHT22;1466;48.778;9.166;2022-11-20T06:53:03;8.80;99.90
2913;DHT22;1466;48.778;9.166;2022-11-20T06:55:30;8.70;99.90
2913;DHT22;1466;48.778;9.166;2022-11-20T06:57:55;8.80;99.90
2913;DHT22;1466;48.778;9.166;2022-11-20T07:00:21;8.70;99.90
2913;DHT22;1466;48.778;9.166;2022-11-20T07:02:47;8.70;99.90
2913;DHT22;1466;48.778;9.166;2022-11-20T07:05:12;8.70;99.90
2913;DHT22;1466;48.778;9.166;2022-11-20T07:07:38;8.70;99.90
2913;DHT22;1466;48.778;9.166;2022-11-20T07:10:04;8.70;99.90
2913;DHT22;1466;48.778;9.166;2022-11-20T07:12:30;8.70;99.90
2913;DHT22;1466;48.778;9.166;2022-11-20T07:14:55;8.80;99.90
2913;DHT22;1466;48.778;9.166;2022-11-20T07:17:21;8.80;99.90
2913;DHT22;1466;48.778;9.166;2022-11-20T07:19:47;8.80;99.90
2913;DHT22;1466;48.778;9.166;2022-11-20T07:22:12;8.90;99.90
2913;DHT22;1466;48.778;9.166;2022-11-20T07:24:38;8.80;99.90
2913;DHT22;1466;48.778;9.166;2022-11-20T07:27:04;8.90;99.90
2913;DHT22;1466;48.778;9.166;2022-11-20T07:29:30;8.90;99.90
2913;DHT22;1466;48.778;9.166;2022-11-20T07:31:55;8.90;99.90
2913;DHT22;1466;48.778;9.166;2022-11-20T07:34:22;8.90;99.90
2913;DHT22;1466;48.778;9.166;2022-11-20T07:36:47;9.00;99.90
2913;DHT22;1466;48.778;9.166;2022-11-20T07:39:13;8.90;99.90
2913;DHT22;1466;48.778;9.166;2022-11-20T07:41:38;8.90;99.90
2913;DHT22;1466;48.778;9.166;2022-11-20T07:44:04;8.80;99.90
2913;DHT22;1466;48.778;9.166;2022-11-20T07:46:30;8.90;99.90
2913;DHT22;1466;48.778;9.166;2022-11-20T07:48:55;8.90;99.90
2913;DHT22;1466;48.778;9.166;2022-11-20T07:51:21;9.00;99.90
2913;DHT22;1466;48.778;9.166;2022-11-20T07:53:47;9.10;99.90
2913;DHT22;1466;48.778;9.166;2022-11-20T07:56:12;9.10;99.90
2913;DHT22;1466;48.778;9.166;2022-11-20T07:58:39;9.10;99.90
2913;DHT22;1466;48.778;9.166;2022-11-20T08:01:08;9.20;99.90
2913;DHT22;1466;48.778;9.166;2022-11-20T08:03:34;9.20;99.90
2913;DHT22;1466;48.778;9.166;2022-11-20T08:06:00;9.30;99.90
2913;DHT22;1466;48.778;9.166;2022-11-20T08:08:27;9.30;99.90
2913;DHT22;1466;48.778;9.166;2022-11-20T08:10:52;9.40;99.90
2913;DHT22;1466;48.778;9.166;2022-11-20T08:13:18;9.40;99.90
2913;DHT22;1466;48.778;9.166;2022-11-20T08:16:02;9.50;99.90
2913;DHT22;1466;48.778;9.166;2022-11-20T08:18:27;9.40;99.90
2913;DHT22;1466;48.778;9.166;2022-11-20T08:20:53;9.40;99.90
2913;DHT22;1466;48.778;9.166;2022-11-20T08:23:19;9.40;99.90
2913;DHT22;1466;48.778;9.166;2022-11-20T08:25:49;9.40;99.90
2913;DHT22;1466;48.778;9.166;2022-11-20T08:28:14;9.50;99.90
2913;DHT22;1466;48.778;9.166;2022-11-20T08:30:40;9.50;99.90
2913;DHT22;1466;48.778;9.166;2022-11-20T08:33:07;9.50;99.90
2913;DHT22;1466;48.778;9.166;2022-11-20T08:35:35;9.50;99.90
2913;DHT22;1466;48.778;9.166;2022-11-20T08:38:02;9.60;99.90
2913;DHT22;1466;48.778;9.166;2022-11-20T08:40:28;9.50;99.90
2913;DHT22;1466;48.778;9.166;2022-11-20T08:42:54;9.50;99.90
2913;DHT22;1466;48.778;9.166;2022-11-20T08:45:20;9.50;99.90
2913;DHT22;1466;48.778;9.166;2022-11-20T08:47:46;9.60;99.90
2913;DHT22;1466;48.778;9.166;2022-11-20T08:50:13;9.60;99.90
2913;DHT22;1466;48.778;9.166;2022-11-20T08:52:39;9.70;99.90
2913;DHT22;1466;48.778;9.166;2022-11-20T08:55:06;9.80;99.90
2913;DHT22;1466;48.778;9.166;2022-11-20T08:57:32;9.80;99.90
2913;DHT22;1466;48.778;9.166;2022-11-20T08:59:58;9.80;99.90
2913;DHT22;1466;48.778;9.166;2022-11-20T09:02:24;10.00;99.90
2913;DHT22;1466;48.778;9.166;2022-11-20T09:04:50;10.00;99.90
2913;DHT22;1466;48.778;9.166;2022-11-20T09:07:16;10.10;99.90
2913;DHT22;1466;48.778;9.166;2022-11-20T09:09:41;10.10;99.90
2913;DHT22;1466;48.778;9.166;2022-11-20T09:12:07;10.10;99.90
2913;DHT22;1466;48.778;9.166;2022-11-20T09:14:33;10.10;99.90
2913;DHT22;1466;48.778;9.166;2022-11-20T09:16:59;10.10;99.90
2913;DHT22;1466;48.778;9.166;2022-11-20T09:19:24;10.10;99.90
2913;DHT22;1466;48.778;9.166;2022-11-20T09:21:50;10.10;99.90
2913;DHT22;1466;48.778;9.166;2022-11-20T09:24:16;10.10;99.90
2913;DHT22;1466;48.778;9.166;2022-11-20T09:26:42;10.10;99.90
2913;DHT22;1466;48.778;9.166;2022-11-20T09:29:07;10.20;99.90
2913;DHT22;1466;48.778;9.166;2022-11-20T09:31:33;10.20;99.90
2913;DHT22;1466;48.778;9.166;2022-11-20T09:33:58;10.20;99.90
2913;DHT22;1466;48.778;9.166;2022-11-20T09:36:24;10.00;99.90
2913;DHT22;1466;48.778;9.166;2022-11-20T09:38:50;10.10;99.90
2913;DHT22;1466;48.778;9.166;2022-11-20T09:47:01;10.00;99.90
2913;DHT22;1466;48.778;9.166;2022-11-20T09:49:40;10.00;99.90
2913;DHT22;1466;48.778;9.166;2022-11-20T09:54:47;10.20;99.90
2913;DHT22;1466;48.778;9.166;2022-11-20T09:57:18;10.20;99.90
2913;DHT22;1466;48.778;9.166;2022-11-20T09:59:48;10.30;99.90
2913;DHT22;1466;48.778;9.166;2022-11-20T10:02:31;10.30;99.90
2913;DHT22;1466;48.778;9.166;2022-11-20T10:05:11;10.20;99.90
2913;DHT22;1466;48.778;9.166;2022-11-20T10:10:49;10.10;99.90
2913;DHT22;1466;48.778;9.166;2022-11-20T10:30:09;9.90;99.90
2913;DHT22;1466;48.778;9.166;2022-11-20T10:32:45;9.80;99.90
2913;DHT22;1466;48.778;9.166;2022-11-20T10:35:18;9.80;99.90
2913;DHT22;1466;48.778;9.166;2022-11-20T10:37:48;9.70;99.90
2913;DHT22;1466;48.778;9.166;2022-11-20T10:40:22;9.60;99.90
2913;DHT22;1466;48.778;9.166;2022-11-20T10:43:08;9.50;99.90
2913;DHT22;1466;48.778;9.166;2022-11-20T10:45:41;9.50;99.90
2913;DHT22;1466;48.778;9.166;2022-11-20T10:48:10;9.50;99.90
2913;DHT22;1466;48.778;9.166;2022-11-20T10:50:47;9.40;99.90
2913;DHT22;1466;48.778;9.166;2022-11-20T10:56:20;9.40;99.90
2913;DHT22;1466;48.778;9.166;2022-11-20T11:01:58;9.30;99.90
2913;DHT22;1466;48.778;9.166;2022-11-20T11:07:03;9.50;99.90
2913;DHT22;1466;48.778;9.166;2022-11-20T11:09:35;9.60;99.90
2913;DHT22;1466;48.778;9.166;2022-11-20T11:12:09;9.70;99.90
2913;DHT22;1466;48.778;9.166;2022-11-20T11:14:46;9.80;99.90
2913;DHT22;1466;48.778;9.166;2022-11-20T11:17:31;9.80;99.90
2913;DHT22;1466;48.778;9.166;2022-11-20T11:22:45;9.70;99.90
2913;DHT22;1466;48.778;9.166;2022-11-20T11:25:40;9.70;99.90
2913;DHT22;1466;48.778;9.166;2022-11-20T11:28:20;9.80;99.90
2913;DHT22;1466;48.778;9.166;2022-11-20T11:30:47;9.90;99.90
2913;DHT22;1466;48.778;9.166;2022-11-20T11:33:27;9.90;99.90
2913;DHT22;1466;48.778;9.166;2022-11-20T11:35:58;10.00;99.90
2913;DHT22;1466;48.778;9.166;2022-11-20T11:38:36;10.00;99.90
2913;DHT22;1466;48.778;9.166;2022-11-20T11:41:04;10.10;99.90
2913;DHT22;1466;48.778;9.166;2022-11-20T11:43:34;10.20;99.90
2913;DHT22;1466;48.778;9.166;2022-11-20T11:46:32;10.30;99.90
2913;DHT22;1466;48.778;9.166;2022-11-20T11:49:18;10.40;99.90
2913;DHT22;1466;48.778;9.166;2022-11-20T11:52:11;10.50;99.90
2913;DHT22;1466;48.778;9.166;2022-11-20T12:00:10;10.60;99.90
2913;DHT22;1466;48.778;9.166;2022-11-20T12:05:25;10.70;99.90
2913;DHT22;1466;48.778;9.166;2022-11-20T12:13:32;10.60;99.90
2913;DHT22;1466;48.778;9.166;2022-11-20T12:16:00;10.40;99.90
2913;DHT22;1466;48.778;9.166;2022-11-20T12:18:27;10.40;99.90
2913;DHT22;1466;48.778;9.166;2022-11-20T12:29:43;10.70;99.90
2913;DHT22;1466;48.778;9.166;2022-11-20T12:32:41;10.80;99.90
2913;DHT22;1466;48.778;9.166;2022-11-20T12:41:50;11.00;99.90
2913;DHT22;1466;48.778;9.166;2022-11-20T12:52:53;10.90;99.90
2913;DHT22;1466;48.778;9.166;2022-11-20T13:06:51;11.20;99.70
2913;DHT22;1466;48.778;9.166;2022-11-20T13:09:19;11.20;99.50
2913;DHT22;1466;48.778;9.166;2022-11-20T13:14:50;11.40;98.90
2913;DHT22;1466;48.778;9.166;2022-11-20T13:17:38;11.40;98.40
2913;DHT22;1466;48.778;9.166;2022-11-20T13:20:06;11.20;98.10
2913;DHT22;1466;48.778;9.166;2022-11-20T13:25:26;11.10;98.30
2913;DHT22;1466;48.778;9.166;2022-11-20T13:27:53;11.00;97.80
2913;DHT22;1466;48.778;9.166;2022-11-20T13:30:21;10.80;97.80
2913;DHT22;1466;48.778;9.166;2022-11-20T13:33:06;10.80;98.00
2913;DHT22;1466;48.778;9.166;2022-11-20T13:35:40;10.80;98.10
2913;DHT22;1466;48.778;9.166;2022-11-20T13:40:37;10.90;98.50
2913;DHT22;1466;48.778;9.166;2022-11-20T13:46:09;10.90;98.20
2913;DHT22;1466;48.778;9.166;2022-11-20T13:48:43;10.80;98.00
2913;DHT22;1466;48.778;9.166;2022-11-20T13:51:34;10.70;98.00
2913;DHT22;1466;48.778;9.166;2022-11-20T13:57:19;10.60;98.30
2913;DHT22;1466;48.778;9.166;2022-11-20T14:00:03;10.60;98.30
2913;DHT22;1466;48.778;9.166;2022-11-20T14:02:33;10.50;98.80
2913;DHT22;1466;48.778;9.166;2022-11-20T14:04:59;10.40;99.60
2913;DHT22;1466;48.778;9.166;2022-11-20T14:07:34;10.40;99.90
2913;DHT22;1466;48.778;9.166;2022-11-20T14:10:00;10.50;99.90
2913;DHT22;1466;48.778;9.166;2022-11-20T14:12:31;10.40;99.90
2913;DHT22;1466;48.778;9.166;2022-11-20T14:14:58;10.30;99.90
2913;DHT22;1466;48.778;9.166;2022-11-20T14:17:33;10.30;99.90
2913;DHT22;1466;48.778;9.166;2022-11-20T14:20:04;10.20;99.90
2913;DHT22;1466;48.778;9.166;2022-11-20T14:22:31;10.20;99.90
2913;DHT22;1466;48.778;9.166;2022-11-20T14:27:42;10.10;99.90
2913;DHT22;1466;48.778;9.166;2022-11-20T14:30:20;10.10;99.90
2913;DHT22;1466;48.778;9.166;2022-11-20T14:32:47;10.10;99.90
2913;DHT22;1466;48.778;9.166;2022-11-20T14:35:36;10.10;99.90
2913;DHT22;1466;48.778;9.166;2022-11-20T14:38:11;10.10;99.90
2913;DHT22;1466;48.778;9.166;2022-11-20T14:40:38;10.10;99.90
2913;DHT22;1466;48.778;9.166;2022-11-20T14:45:58;10.20;99.90
2913;DHT22;1466;48.778;9.166;2022-11-20T14:48:47;10.20;99.90
2913;DHT22;1466;48.778;9.166;2022-11-20T14:51:33;10.20;99.90
2913;DHT22;1466;48.778;9.166;2022-11-20T14:54:17;10.20;99.90
2913;DHT22;1466;48.778;9.166;2022-11-20T14:57:00;10.20;99.90
2913;DHT22;1466;48.778;9.166;2022-11-20T14:59:32;10.20;99.90
2913;DHT22;1466;48.778;9.166;2022-11-20T15:02:05;10.10;99.90
2913;DHT22;1466;48.778;9.166;2022-11-20T15:04:31;10.10;99.90
2913;DHT22;1466;48.778;9.166;2022-11-20T15:06:58;10.20;99.90
2913;DHT22;1466;48.778;9.166;2022-11-20T15:09:24;10.20;99.90
2913;DHT22;1466;48.778;9.166;2022-11-20T15:12:01;10.20;99.90
2913;DHT22;1466;48.778;9.166;2022-11-20T15:14:30;10.20;99.90
2913;DHT22;1466;48.778;9.166;2022-11-20T15:16:56;10.10;99.90
2913;DHT22;1466;48.778;9.166;2022-11-20T15:19:23;10.00;99.90
2913;DHT22;1466;48.778;9.166;2022-11-20T15:21:50;10.00;99.90
2913;DHT22;1466;48.778;9.166;2022-11-20T15:24:16;10.00;99.90
2913;DHT22;1466;48.778;9.166;2022-11-20T15:26:42;10.00;99.90
2913;DHT22;1466;48.778;9.166;2022-11-20T15:29:10;10.00;99.90
2913;DHT22;1466;48.778;9.166;2022-11-20T15:31:37;10.10;99.90
2913;DHT22;1466;48.778;9.166;2022-11-20T15:34:12;10.00;99.90
2913;DHT22;1466;48.778;9.166;2022-11-20T15:36:39;10.00;99.90
2913;DHT22;1466;48.778;9.166;2022-11-20T15:39:06;10.00;99.90
2913;DHT22;1466;48.778;9.166;2022-11-20T15:41:35;10.00;99.90
2913;DHT22;1466;48.778;9.166;2022-11-20T15:44:01;10.00;99.90
2913;DHT22;1466;48.778;9.166;2022-11-20T15:46:29;9.90;99.90
2913;DHT22;1466;48.778;9.166;2022-11-20T15:48:56;9.90;99.90
2913;DHT22;1466;48.778;9.166;2022-11-20T15:51:31;9.90;99.90
2913;DHT22;1466;48.778;9.166;2022-11-20T15:53:59;9.80;99.90
2913;DHT22;1466;48.778;9.166;2022-11-20T15:56:25;9.80;99.90
2913;DHT22;1466;48.778;9.166;2022-11-20T15:58:51;9.80;99.90
2913;DHT22;1466;48.778;9.166;2022-11-20T16:01:19;9.90;99.90
2913;DHT22;1466;48.778;9.166;2022-11-20T16:03:45;9.90;99.90
2913;DHT22;1466;48.778;9.166;2022-11-20T16:06:11;10.00;99.90
2913;DHT22;1466;48.778;9.166;2022-11-20T16:08:37;10.00;99.90
2913;DHT22;1466;48.778;9.166;2022-11-20T16:11:03;10.00;99.90
2913;DHT22;1466;48.778;9.166;2022-11-20T16:13:30;9.90;99.90
2913;DHT22;1466;48.778;9.166;2022-11-20T16:16:31;9.80;99.90
2913;DHT22;1466;48.778;9.166;2022-11-20T16:18:57;9.80;99.90
2913;DHT22;1466;48.778;9.166;2022-11-20T16:21:23;9.80;99.90
2913;DHT22;1466;48.778;9.166;2022-11-20T16:24:05;9.70;99.90
2913;DHT22;1466;48.778;9.166;2022-11-20T16:26:32;9.70;99.90
2913;DHT22;1466;48.778;9.166;2022-11-20T16:29:03;9.70;99.90
2913;DHT22;1466;48.778;9.166;2022-11-20T16:31:29;9.70;99.90
2913;DHT22;1466;48.778;9.166;2022-11-20T16:33:56;9.60;99.90
2913;DHT22;1466;48.778;9.166;2022-11-20T16:36:24;9.60;99.90
2913;DHT22;1466;48.778;9.166;2022-11-20T16:38:54;9.60;99.90
2913;DHT22;1466;48.778;9.166;2022-11-20T16:41:20;9.60;99.90
2913;DHT22;1466;48.778;9.166;2022-11-20T16:43:48;9.60;99.90
2913;DHT22;1466;48.778;9.166;2022-11-20T16:46:15;9.60;99.90
2913;DHT22;1466;48.778;9.166;2022-11-20T16:48:40;9.60;99.90
2913;DHT22;1466;48.778;9.166;2022-11-20T16:51:10;9.60;99.90
2913;DHT22;1466;48.778;9.166;2022-11-20T16:53:36;9.60;99.90
2913;DHT22;1466;48.778;9.166;2022-11-20T16:56:13;9.60;99.90
2913;DHT22;1466;48.778;9.166;2022-11-20T16:58:40;9.60;99.90
2913;DHT22;1466;48.778;9.166;2022-11-20T17:01:10;9.60;99.90
2913;DHT22;1466;48.778;9.166;2022-11-20T17:03:38;9.60;99.90
2913;DHT22;1466;48.778;9.166;2022-11-20T17:06:17;9.60;99.90
2913;DHT22;1466;48.778;9.166;2022-11-20T17:08:44;9.60;99.90
2913;DHT22;1466;48.778;9.166;2022-11-20T17:11:18;9.70;99.90
2913;DHT22;1466;48.778;9.166;2022-11-20T17:13:44;9.60;99.90
2913;DHT22;1466;48.778;9.166;2022-11-20T17:16:12;9.70;99.90
2913;DHT22;1466;48.778;9.166;2022-11-20T17:18:39;9.70;99.90
2913;DHT22;1466;48.778;9.166;2022-11-20T17:21:05;9.70;99.90
2913;DHT22;1466;48.778;9.166;2022-11-20T17:23:33;9.80;99.90
2913;DHT22;1466;48.778;9.166;2022-11-20T17:26:06;9.70;99.90
2913;DHT22;1466;48.778;9.166;2022-11-20T17:28:32;9.70;99.90
2913;DHT22;1466;48.778;9.166;2022-11-20T17:31:02;9.70;99.90
2913;DHT22;1466;48.778;9.166;2022-11-20T17:33:29;9.70;99.90
2913;DHT22;1466;48.778;9.166;2022-11-20T17:35:54;9.60;99.90
2913;DHT22;1466;48.778;9.166;2022-11-20T17:38:20;9.60;99.90
2913;DHT22;1466;48.778;9.166;2022-11-20T17:40:46;9.60;99.90
2913;DHT22;1466;48.778;9.166;2022-11-20T17:43:11;9.60;99.90
2913;DHT22;1466;48.778;9.166;2022-11-20T17:45:37;9.60;99.90
2913;DHT22;1466;48.778;9.166;2022-11-20T17:48:03;9.60;99.90
2913;DHT22;1466;48.778;9.166;2022-11-20T17:50:28;9.60;99.90
2913;DHT22;1466;48.778;9.166;2022-11-20T17:52:54;9.70;99.90
2913;DHT22;1466;48.778;9.166;2022-11-20T17:55:19;9.70;99.90
2913;DHT22;1466;48.778;9.166;2022-11-20T17:57:45;9.60;99.90
2913;DHT22;1466;48.778;9.166;2022-11-20T18:03:00;9.70;99.90
2913;DHT22;1466;48.778;9.166;2022-11-20T18:05:26;9.70;99.90
2913;DHT22;1466;48.778;9.166;2022-11-20T18:07:52;9.70;99.90
2913;DHT22;1466;48.778;9.166;2022-11-20T18:10:18;9.70;99.90
2913;DHT22;1466;48.778;9.166;2022-11-20T18:12:43;9.70;99.90
2913;DHT22;1466;48.778;9.166;2022-11-20T18:15:09;9.70;99.90
2913;DHT22;1466;48.778;9.166;2022-11-20T18:17:35;9.70;99.90
2913;DHT22;1466;48.778;9.166;2022-11-20T18:20:00;9.70;99.90
2913;DHT22;1466;48.778;9.166;2022-11-20T18:22:26;9.80;99.90
2913;DHT22;1466;48.778;9.166;2022-11-20T18:24:51;9.70;99.90
2913;DHT22;1466;48.778;9.166;2022-11-20T18:27:19;9.70;99.90
2913;DHT22;1466;48.778;9.166;2022-11-20T18:29:45;9.80;99.90
2913;DHT22;1466;48.778;9.166;2022-11-20T18:32:13;9.80;99.90